CYVM/YVM METAR and TAF weather

Enter ICAO airport designator
Station Type Date Time Source
CYVM METAR 2018/04/21 20:00 UTC NOAA

CYVM 212000Z 21010KT 15SM SKC M07/M10 A3010 RMK SLP194


Station Type Date Time Source
CYVM Decoded METAR 2018/04/21 20:00 UTC NOAA

Broughton Island Airport, Canada (CYVM) 67-33N 064-02W
Apr 21, 2018 - 04:00 PM EDT / 2018.04.21 2000 UTC
Wind: from the SSW (210 degrees) at 12 MPH (10 KT):0
Visibility: 15 mile(s):0
Sky conditions: clear
Temperature: 19 F (-7 C)
Windchill: 6 F (-14 C):1
Dew Point: 14 F (-10 C)
Relative Humidity: 79%
Pressure (altimeter): 30.1 in. Hg (1019 hPa)
ob: CYVM 212000Z 21010KT 15SM SKC M07/M10 A3010 RMK SLP194
cycle: 20

Station Type Date Time Source
CYVM TAF 2018/04/21 19:39 UTC NOAA

TAF CYVM 211838Z 2119/2207 20008KT P6SM SKC
RMK NXT FCST BY 220100Z


Example: see airport list